createdAt,value
2018-12-03T00:00:23.801Z,92.90
2018-12-03T00:05:21.277Z,92.94
2018-12-03T00:10:18.702Z,92.56
2018-12-03T00:15:16.161Z,92.53
2018-12-03T00:20:13.579Z,92.19
2018-12-03T00:25:11.003Z,92.57
2018-12-03T00:30:10.320Z,92.01
2018-12-03T00:35:08.625Z,92.44
2018-12-03T00:40:06.546Z,92.98
2018-12-03T00:45:04.295Z,92.85
2018-12-03T00:50:01.725Z,93.31
2018-12-03T00:54:59.159Z,93.70
2018-12-03T01:00:07.633Z,93.22
2018-12-03T01:05:07.233Z,93.88
2018-12-03T01:10:07.235Z,93.64
2018-12-03T01:15:07.161Z,93.19
2018-12-03T01:20:08.857Z,93.92
2018-12-03T01:25:06.630Z,93.40
2018-12-03T01:30:10.645Z,93.33
2018-12-03T01:35:09.238Z,93.70
2018-12-03T01:40:08.661Z,93.14
2018-12-03T01:45:08.234Z,93.86
2018-12-03T01:50:08.018Z,94.17
2018-12-03T01:55:06.974Z,93.87
2018-12-03T02:00:15.283Z,94.44
2018-12-03T02:05:13.118Z,94.18
2018-12-03T02:10:11.663Z,93.85
2018-12-03T02:15:13.549Z,93.92
2018-12-03T02:20:13.043Z,94.40
2018-12-03T02:25:10.941Z,94.42
2018-12-03T02:30:12.343Z,94.35
2018-12-03T02:35:10.750Z,93.25
2018-12-03T02:40:11.425Z,92.97
2018-12-03T02:45:10.976Z,93.32
2018-12-03T02:50:09.765Z,92.96
2018-12-03T02:55:09.208Z,93.58
2018-12-03T03:00:14.436Z,93.41
2018-12-03T03:05:13.149Z,93.75
2018-12-03T03:10:11.645Z,94.09
2018-12-03T03:15:11.058Z,93.84
2018-12-03T03:20:10.425Z,93.92
2018-12-03T03:25:09.032Z,94.39
2018-12-03T03:30:12.332Z,94.19
2018-12-03T03:35:12.010Z,94.36
2018-12-03T03:40:14.029Z,94.23
2018-12-03T03:45:14.030Z,94.67
2018-12-03T03:50:11.455Z,95.08
2018-12-03T03:55:09.493Z,95.11
2018-12-03T04:00:12.238Z,95.08
2018-12-03T04:05:10.732Z,95.07
2018-12-03T04:10:10.102Z,94.55
2018-12-03T04:15:08.976Z,94.51
2018-12-03T04:20:11.725Z,93.56
2018-12-03T04:25:10.198Z,93.54
2018-12-03T04:30:10.989Z,92.84
2018-12-03T04:35:09.124Z,93.15
2018-12-03T04:40:12.841Z,92.40
2018-12-03T04:45:12.402Z,92.73
2018-12-03T04:50:11.185Z,92.04
2018-12-03T04:55:08.858Z,92.58
2018-12-03T05:00:11.718Z,93.63
2018-12-03T05:05:09.667Z,92.83
2018-12-03T05:10:12.638Z,93.10
2018-12-03T05:15:11.061Z,92.41
2018-12-03T05:20:09.765Z,93.04
2018-12-03T05:25:09.380Z,92.93
2018-12-03T05:30:11.915Z,92.49
2018-12-03T05:35:12.357Z,92.44
2018-12-03T05:40:18.574Z,93.47
2018-12-03T05:45:15.989Z,93.62
2018-12-03T05:50:14.221Z,93.94
2018-12-03T05:55:12.265Z,93.22
2018-12-03T06:00:13.935Z,93.25
2018-12-03T06:05:12.299Z,92.82
2018-12-03T06:10:11.088Z,92.45
2018-12-03T06:15:10.771Z,92.86
2018-12-03T06:20:10.715Z,92.99
2018-12-03T06:25:12.819Z,92.97
2018-12-03T06:30:14.448Z,92.88
2018-12-03T06:35:12.965Z,93.76
2018-12-03T06:40:13.618Z,93.09
2018-12-03T06:45:12.398Z,93.75
2018-12-03T06:50:10.071Z,93.19
2018-12-03T06:55:09.099Z,93.73
2018-12-03T07:00:12.994Z,93.41
2018-12-03T07:05:10.957Z,92.04
2018-12-03T07:10:13.761Z,91.78
2018-12-03T07:15:15.046Z,91.27
2018-12-03T07:20:13.195Z,92.24
2018-12-03T07:25:11.362Z,93.13
2018-12-03T07:30:16.043Z,92.23
2018-12-03T07:35:13.567Z,93.09
2018-12-03T07:40:11.621Z,92.80
2018-12-03T07:45:11.609Z,93.01
2018-12-03T07:50:10.347Z,93.08
2018-12-03T07:55:09.970Z,92.42
2018-12-03T08:00:12.836Z,91.78
2018-12-03T08:05:10.736Z,91.55
2018-12-03T08:10:12.493Z,91.64
2018-12-03T08:15:13.262Z,90.80
2018-12-03T08:20:16.485Z,90.67
2018-12-03T08:25:14.020Z,91.47
2018-12-03T08:30:13.062Z,90.76
2018-12-03T08:35:12.094Z,91.95
2018-12-03T08:40:12.291Z,91.98
2018-12-03T08:45:09.749Z,91.98
2018-12-03T08:50:12.390Z,91.91
2018-12-03T08:55:10.978Z,90.41
2018-12-03T09:00:12.691Z,90.12
2018-12-03T09:05:10.946Z,89.81
2018-12-03T09:10:13.781Z,88.04
2018-12-03T09:15:11.221Z,86.58
2018-12-03T09:20:08.916Z,86.30
2018-12-03T09:25:14.528Z,85.95
2018-12-03T09:30:14.459Z,86.31
2018-12-03T09:35:13.916Z,83.87
2018-12-03T09:40:13.415Z,84.72
2018-12-03T09:45:13.166Z,85.01
2018-12-03T09:50:20.830Z,84.72
2018-12-03T09:55:25.506Z,84.28
2018-12-03T10:00:23.659Z,84.71
2018-12-03T10:05:21.395Z,84.38
2018-12-03T10:10:18.802Z,84.00
2018-12-03T10:15:16.280Z,84.32
2018-12-03T10:20:13.723Z,83.18
2018-12-03T10:25:13.238Z,83.19
2018-12-03T10:30:21.010Z,83.19
2018-12-03T10:35:18.614Z,82.17
2018-12-03T10:40:17.614Z,82.63
2018-12-03T10:45:16.821Z,81.57
2018-12-03T10:50:22.018Z,80.38
2018-12-03T10:55:13.852Z,79.02
2018-12-03T11:00:20.783Z,79.40
2018-12-03T11:06:24.569Z,78.92
2018-12-03T11:11:22.095Z,77.88
2018-12-03T11:16:27.084Z,79.44
2018-12-03T11:21:25.503Z,78.87
2018-12-03T11:26:34.769Z,79.60
2018-12-03T11:31:33.352Z,79.45
2018-12-03T11:36:33.974Z,79.56
2018-12-03T11:41:31.446Z,79.72
2018-12-03T11:46:28.881Z,79.50
2018-12-03T11:51:26.322Z,79.84
2018-12-03T11:56:23.736Z,79.83
2018-12-03T12:01:21.329Z,80.64
2018-12-03T12:06:18.741Z,80.78
2018-12-03T12:11:16.176Z,79.20
2018-12-03T12:16:13.620Z,78.97
2018-12-03T12:21:11.089Z,78.15
2018-12-03T12:26:08.540Z,78.00
2018-12-03T12:31:06.576Z,77.70
2018-12-03T12:36:04.011Z,77.67
2018-12-03T12:41:01.556Z,77.48
2018-12-03T12:46:02.215Z,78.24
2018-12-03T12:50:59.705Z,77.60
2018-12-03T12:55:57.141Z,76.78
2018-12-03T13:00:54.587Z,78.27
2018-12-03T13:05:52.018Z,76.62
2018-12-03T13:10:49.558Z,77.34
2018-12-03T13:15:47.016Z,78.21
2018-12-03T13:20:44.447Z,78.37
2018-12-03T13:25:41.931Z,78.56
2018-12-03T13:30:39.397Z,78.19
2018-12-03T13:35:36.844Z,78.45
2018-12-03T13:40:34.255Z,76.77
2018-12-03T13:45:31.667Z,77.37
2018-12-03T13:50:29.117Z,77.11
2018-12-03T13:55:26.573Z,78.14
2018-12-03T14:00:25.386Z,78.04
2018-12-03T14:05:22.896Z,78.80
2018-12-03T14:10:26.054Z,78.81
2018-12-03T14:15:49.571Z,80.10
2018-12-03T14:20:48.744Z,79.62
2018-12-03T14:25:46.153Z,80.44
2018-12-03T14:30:43.645Z,80.63
2018-12-03T14:35:41.086Z,81.19
2018-12-03T14:40:38.518Z,82.87
2018-12-03T14:45:35.931Z,83.47
2018-12-03T14:50:33.369Z,84.20
2018-12-03T14:55:30.824Z,84.77
2018-12-03T15:00:28.299Z,86.97
2018-12-03T15:05:25.750Z,88.22
2018-12-03T15:10:23.273Z,88.19
2018-12-03T15:15:20.707Z,88.97
2018-12-03T15:20:18.134Z,89.29
2018-12-03T15:25:15.551Z,89.25
2018-12-03T15:30:14.282Z,89.34
2018-12-03T15:35:11.841Z,90.27
2018-12-03T15:40:12.136Z,89.81
2018-12-03T15:45:10.889Z,89.85
2018-12-03T15:50:08.361Z,89.72
2018-12-03T15:55:06.878Z,88.63
2018-12-03T16:00:10.579Z,88.10
2018-12-03T16:05:10.833Z,87.94
2018-12-03T16:10:10.748Z,87.74
2018-12-03T16:15:08.762Z,88.07
2018-12-03T16:20:07.946Z,87.43
2018-12-03T16:25:06.806Z,87.91
2018-12-03T16:30:09.818Z,87.10
2018-12-03T16:35:07.309Z,87.42
2018-12-03T16:40:06.253Z,86.80
2018-12-03T16:45:04.442Z,87.50
2018-12-03T16:50:01.955Z,87.01
2018-12-03T16:54:59.370Z,87.62
2018-12-03T16:59:57.493Z,87.73
2018-12-03T17:04:55.145Z,87.68
2018-12-03T17:09:52.645Z,88.86
2018-12-03T17:14:50.327Z,88.78
2018-12-03T17:19:49.339Z,88.51
2018-12-03T17:24:47.826Z,89.02
2018-12-03T17:29:51.526Z,88.92
2018-12-03T17:34:49.062Z,88.66
2018-12-03T17:39:46.463Z,89.04
2018-12-03T17:44:43.965Z,88.88
2018-12-03T17:49:43.824Z,89.51
2018-12-03T17:54:41.553Z,89.44
2018-12-03T17:59:41.986Z,89.39
2018-12-03T18:04:40.522Z,89.72
2018-12-03T18:09:38.002Z,90.18
2018-12-03T18:14:36.335Z,89.63
2018-12-03T18:19:33.869Z,89.63
2018-12-03T18:25:00.524Z,90.21
2018-12-03T18:29:58.615Z,89.93
2018-12-03T18:34:54.680Z,90.21
2018-12-03T18:39:50.669Z,90.99
2018-12-03T18:44:46.664Z,91.14
2018-12-03T18:49:42.667Z,90.91
2018-12-03T18:54:38.652Z,90.04
2018-12-03T18:59:38.546Z,89.75
2018-12-03T19:04:34.593Z,89.97
2018-12-03T19:09:30.604Z,90.18
2018-12-03T19:14:26.592Z,89.23
2018-12-03T19:19:22.609Z,89.73
2018-12-03T19:24:18.668Z,89.28
2018-12-03T19:29:14.709Z,89.24
2018-12-03T19:34:10.708Z,89.80
2018-12-03T19:39:06.801Z,89.71
2018-12-03T19:44:02.896Z,89.88
2018-12-03T19:48:58.888Z,89.74
2018-12-03T19:53:55.921Z,89.43
2018-12-03T19:58:51.919Z,88.68
2018-12-03T20:03:48.012Z,89.31
2018-12-03T20:08:44.008Z,89.06
2018-12-03T20:13:40.114Z,89.41
2018-12-03T20:18:36.158Z,89.75
2018-12-03T20:23:32.261Z,89.32
2018-12-03T20:28:28.523Z,88.97
2018-12-03T20:33:24.754Z,89.17
2018-12-03T20:38:20.789Z,89.07
2018-12-03T20:43:16.786Z,88.87
2018-12-03T20:48:12.777Z,88.27
2018-12-03T20:53:08.999Z,88.78
2018-12-03T20:58:05.715Z,88.29
2018-12-03T21:03:01.773Z,88.76
2018-12-03T21:07:57.761Z,88.60
2018-12-03T21:12:53.853Z,89.16
2018-12-03T21:17:50.749Z,90.11
2018-12-03T21:22:47.764Z,89.64
2018-12-03T21:27:43.853Z,90.18
2018-12-03T21:32:39.849Z,89.72
2018-12-03T21:37:35.907Z,90.38
2018-12-03T21:42:31.897Z,90.36
2018-12-03T21:47:27.901Z,89.68
2018-12-03T21:52:23.985Z,89.13
2018-12-03T21:57:20.046Z,89.61
2018-12-03T22:02:16.044Z,89.57
2018-12-03T22:07:12.153Z,88.61
2018-12-03T22:12:08.254Z,88.54
2018-12-03T22:17:04.454Z,88.89
2018-12-03T22:22:00.441Z,88.23
2018-12-03T22:26:56.462Z,89.23
2018-12-03T22:31:52.456Z,89.14
2018-12-03T22:36:48.533Z,89.88
2018-12-03T22:41:44.533Z,90.29
2018-12-03T22:46:40.526Z,90.07
2018-12-03T22:51:36.529Z,88.94
2018-12-03T22:56:33.428Z,89.50
2018-12-03T23:01:29.665Z,89.22
2018-12-03T23:06:25.663Z,90.98
2018-12-03T23:11:22.237Z,92.78
2018-12-03T23:16:18.308Z,93.07
2018-12-03T23:21:14.308Z,94.22
2018-12-03T23:26:10.309Z,94.37
2018-12-03T23:31:06.396Z,94.21
2018-12-03T23:36:02.393Z,94.04
2018-12-03T23:40:58.509Z,92.35
2018-12-03T23:45:54.516Z,91.59
2018-12-03T23:50:50.505Z,89.33
2018-12-03T23:55:46.605Z,88.58
